Aston Clinton, United Kingdom
Current Conditions -  °F | °C
As of 12:20 PM on Saturday 25 Oct 2014 (Local Time) from EGGW Reporting Station
Broken Clouds Broken Clouds  
Wind Chill: 55°   Ceiling: 2600
Heat Index: 55°   Visibility: 6mi
Dew Point: 48°   Wind: 9mph
Humidity: 77%   Direction: 210°SSW
Pressure: 30.06"   Gusts: NA
Location:  51.8°N, 0.73°W
Report Text: EGGW 251120Z 21008KT 170V240 9999 BKN026 BKN046 13/09 Q1018
Loading
Personal Weather Stations






























Interactive Weather Map
Tropical Storm Tracking
New forecast layout! Learn more

10-Day Weather Forecast

Advertisements
Track Severe Weather on mobile